Terminal Aerodrome Forecast
Issued by NWS

Home | Current Version | Previous Version | Text Only | Print | Product List | Glossary On
Versions: 1 2 3 4 5 6 7 8 9 10 11 12 13 14 15 16 17 18 19 20 21 22 23 24 25 26 27 28 29 30 31 32 33 34 35 36 37 38 39 40 41 42 43 44 45
000
FTUS41 KBGM 260546
TAFELM
TAF
KELM 260546Z 2606/2706 16005KT P6SM -SHRA OVC045
     FM260900 16009KT P6SM -SHRA OVC025 WS020/18040KT
     FM261200 16010G18KT P6SM OVC030 WS020/18040KT
     FM261500 17013G24KT P6SM OVC018
     FM262000 21014G26KT 5SM -SHRA OVC016
     FM262300 25013G24KT P6SM OVC025=

USA.gov is the U.S. government's official web portal to all federal, state and local government web resources and services.